createdAt,value
2023-07-17T00:00:16.162Z,0.070000
2023-07-17T00:05:16.290Z,0.070000
2023-07-17T00:10:16.428Z,0.070000
2023-07-17T00:15:16.386Z,0.060000
2023-07-17T00:20:16.389Z,0.070000
2023-07-17T00:25:16.448Z,0.060000
2023-07-17T00:30:16.282Z,0.060000
2023-07-17T00:35:16.453Z,0.040000
2023-07-17T00:40:16.318Z,0.030000
2023-07-17T00:45:16.277Z,0.020000
2023-07-17T00:50:16.293Z,0.020000
2023-07-17T00:55:16.299Z,0.020000
2023-07-17T01:00:16.334Z,0.030000
2023-07-17T01:05:16.451Z,0.030000
2023-07-17T01:10:16.406Z,0.040000
2023-07-17T01:15:16.419Z,0.050000
2023-07-17T01:20:16.368Z,0.040000
2023-07-17T01:25:16.447Z,0.040000
2023-07-17T01:30:16.387Z,0.050000
2023-07-17T01:35:16.404Z,0.060000
2023-07-17T01:40:16.447Z,0.070000
2023-07-17T01:45:16.387Z,0.080000
2023-07-17T01:50:16.546Z,0.090000
2023-07-17T01:55:16.480Z,0.090000
2023-07-17T02:00:16.471Z,0.090000
2023-07-17T02:05:16.622Z,0.100000
2023-07-17T02:10:16.693Z,0.100000
2023-07-17T02:15:16.495Z,0.090000
2023-07-17T02:20:16.485Z,0.100000
2023-07-17T02:25:16.567Z,0.100000
2023-07-17T02:30:16.854Z,0.090000
2023-07-17T02:35:16.600Z,0.080000
2023-07-17T02:40:16.724Z,0.070000
2023-07-17T02:45:16.671Z,0.060000
2023-07-17T02:50:16.589Z,0.050000
2023-07-17T02:55:16.611Z,0.040000
2023-07-17T03:00:16.580Z,0.030000
2023-07-17T03:05:16.595Z,0.020000
2023-07-17T03:10:16.645Z,0.010000
2023-07-17T03:15:16.700Z,0.010000
2023-07-17T03:20:16.684Z,0.000000
2023-07-17T03:25:16.808Z,0.000000
2023-07-17T03:30:16.759Z,0.000000
2023-07-17T03:35:16.682Z,0.000000
2023-07-17T03:40:16.690Z,0.000000
2023-07-17T03:45:16.725Z,0.000000
2023-07-17T03:50:16.673Z,0.000000
2023-07-17T03:55:16.929Z,0.000000
2023-07-17T04:00:15.698Z,0.000000
2023-07-17T04:05:15.677Z,0.000000
2023-07-17T04:10:15.705Z,0.000000
2023-07-17T04:15:15.959Z,0.000000
2023-07-17T04:20:15.711Z,0.000000
2023-07-17T04:25:15.740Z,0.000000
2023-07-17T04:30:15.795Z,0.000000
2023-07-17T04:35:15.837Z,0.000000
2023-07-17T04:40:15.871Z,0.000000
2023-07-17T04:45:15.855Z,0.000000
2023-07-17T04:50:15.784Z,0.000000
2023-07-17T04:55:15.803Z,0.000000
2023-07-17T05:00:15.805Z,0.000000
2023-07-17T05:05:15.937Z,0.000000
2023-07-17T05:10:15.838Z,0.000000
2023-07-17T05:15:15.887Z,0.000000
2023-07-17T05:20:15.850Z,0.000000
2023-07-17T05:25:16.066Z,0.000000
2023-07-17T05:30:15.890Z,0.000000
2023-07-17T05:35:17.434Z,0.000000
2023-07-17T05:40:15.969Z,0.000000
2023-07-17T05:45:15.904Z,0.000000
2023-07-17T05:50:16.090Z,0.000000
2023-07-17T05:55:16.022Z,0.000000
2023-07-17T06:00:16.150Z,0.000000
2023-07-17T06:05:15.966Z,0.000000
2023-07-17T06:10:16.016Z,0.000000
2023-07-17T06:15:16.072Z,0.000000
2023-07-17T06:20:16.004Z,0.000000
2023-07-17T06:25:16.086Z,0.000000
2023-07-17T06:30:16.092Z,0.000000
2023-07-17T06:35:16.076Z,0.000000
2023-07-17T06:40:16.163Z,0.000000
2023-07-17T06:45:16.081Z,0.000000
2023-07-17T06:50:16.139Z,0.000000
2023-07-17T06:55:16.260Z,0.000000
2023-07-17T07:00:16.355Z,0.000000
2023-07-17T07:05:16.376Z,0.000000
2023-07-17T07:10:16.355Z,0.000000
2023-07-17T07:15:16.213Z,0.000000
2023-07-17T07:20:16.259Z,0.000000
2023-07-17T07:25:16.398Z,0.000000
2023-07-17T07:30:16.292Z,0.000000
2023-07-17T07:35:16.334Z,0.000000
2023-07-17T07:40:16.262Z,0.000000
2023-07-17T07:45:16.625Z,0.000000
2023-07-17T07:50:16.379Z,0.000000
2023-07-17T07:55:16.296Z,0.000000
2023-07-17T08:00:16.295Z,0.000000
2023-07-17T08:05:16.224Z,0.000000
2023-07-17T08:10:16.395Z,0.000000
2023-07-17T08:15:16.328Z,0.000000
2023-07-17T08:20:16.287Z,0.000000
2023-07-17T08:25:16.476Z,0.000000
2023-07-17T08:30:16.468Z,0.000000
2023-07-17T08:35:16.368Z,0.000000
2023-07-17T08:40:16.524Z,0.000000
2023-07-17T08:45:16.453Z,0.000000
2023-07-17T08:50:16.538Z,0.000000
2023-07-17T08:55:16.416Z,0.000000
2023-07-17T09:00:16.486Z,0.000000
2023-07-17T09:05:16.513Z,0.000000
2023-07-17T09:10:16.472Z,0.000000
2023-07-17T09:15:16.464Z,0.000000
2023-07-17T09:20:16.660Z,0.000000
2023-07-17T09:25:16.617Z,0.000000
2023-07-17T09:30:16.510Z,0.000000
2023-07-17T09:35:16.508Z,0.000000
2023-07-17T09:40:16.622Z,0.000000
2023-07-17T09:45:16.552Z,0.000000
2023-07-17T09:50:16.661Z,0.000000
2023-07-17T09:55:16.774Z,0.000000
2023-07-17T10:00:16.632Z,0.000000
2023-07-17T10:05:16.451Z,0.000000
2023-07-17T10:10:16.686Z,0.000000
2023-07-17T10:15:16.633Z,0.000000
2023-07-17T10:20:16.680Z,0.000000
2023-07-17T10:25:17.072Z,0.000000
2023-07-17T10:30:16.649Z,0.000000
2023-07-17T10:35:16.693Z,0.000000
2023-07-17T10:40:16.706Z,0.000000
2023-07-17T10:45:16.785Z,0.000000
2023-07-17T10:50:16.690Z,0.000000
2023-07-17T10:55:16.721Z,0.000000
2023-07-17T11:00:16.739Z,0.000000
2023-07-17T11:05:16.765Z,0.000000
2023-07-17T11:10:16.791Z,0.000000
2023-07-17T11:15:16.696Z,0.000000
2023-07-17T11:20:16.792Z,0.000000
2023-07-17T11:25:16.699Z,0.000000
2023-07-17T11:30:16.770Z,0.000000
2023-07-17T11:35:16.992Z,0.000000
2023-07-17T11:40:16.816Z,0.000000
2023-07-17T11:45:16.827Z,0.000000
2023-07-17T11:50:16.783Z,0.000000
2023-07-17T11:55:16.883Z,0.000000
2023-07-17T12:00:16.874Z,0.000000
2023-07-17T12:05:16.841Z,0.000000
2023-07-17T12:10:17.002Z,0.000000
2023-07-17T12:15:16.916Z,0.000000
2023-07-17T12:20:17.070Z,0.000000
2023-07-17T12:25:17.049Z,0.000000
2023-07-17T12:30:17.018Z,0.000000
2023-07-17T12:35:17.105Z,0.000000
2023-07-17T12:40:17.021Z,0.000000
2023-07-17T12:45:17.113Z,0.000000
2023-07-17T12:50:16.983Z,0.000000
2023-07-17T12:55:17.342Z,0.000000
2023-07-17T13:00:17.160Z,0.000000
2023-07-17T13:05:17.207Z,0.000000
2023-07-17T13:10:17.017Z,0.000000
2023-07-17T13:15:16.977Z,0.000000
2023-07-17T13:20:17.037Z,0.000000
2023-07-17T13:25:17.070Z,0.000000
2023-07-17T13:30:17.089Z,0.000000
2023-07-17T13:35:17.106Z,0.000000
2023-07-17T13:40:17.130Z,0.000000
2023-07-17T13:45:17.162Z,0.000000
2023-07-17T13:50:17.226Z,0.000000
2023-07-17T13:55:19.254Z,0.000000
2023-07-17T14:00:17.159Z,0.000000
2023-07-17T14:05:17.111Z,0.000000
2023-07-17T14:10:17.217Z,0.000000
2023-07-17T14:15:17.183Z,0.000000
2023-07-17T14:20:17.190Z,0.000000
2023-07-17T14:25:17.303Z,0.000000
2023-07-17T14:30:17.455Z,0.000000
2023-07-17T14:35:17.414Z,0.000000
2023-07-17T14:40:17.376Z,0.000000
2023-07-17T14:45:17.325Z,0.000000
2023-07-17T14:50:17.260Z,0.000000
2023-07-17T14:55:17.278Z,0.000000
2023-07-17T15:00:17.416Z,0.000000
2023-07-17T15:05:20.637Z,0.000000
2023-07-17T15:10:17.423Z,0.000000
2023-07-17T15:15:17.371Z,0.000000
2023-07-17T15:20:17.356Z,0.000000
2023-07-17T15:25:17.446Z,0.000000
2023-07-17T15:30:17.347Z,0.000000
2023-07-17T15:35:17.444Z,0.000000
2023-07-17T15:40:17.424Z,0.000000
2023-07-17T15:45:17.574Z,0.000000
2023-07-17T15:50:17.472Z,0.000000
2023-07-17T15:55:17.473Z,0.000000
2023-07-17T16:00:17.500Z,0.000000
2023-07-17T16:05:15.442Z,0.000000
2023-07-17T16:10:15.424Z,0.000000
2023-07-17T16:15:15.316Z,0.000000
2023-07-17T16:20:15.563Z,0.000000
2023-07-17T16:25:15.389Z,0.000000
2023-07-17T16:30:15.460Z,0.000000
2023-07-17T16:35:15.534Z,0.000000
2023-07-17T16:40:15.430Z,0.000000
2023-07-17T16:45:15.573Z,0.000000
2023-07-17T16:50:15.531Z,0.000000
2023-07-17T16:55:15.505Z,0.000000
2023-07-17T17:00:15.709Z,0.000000
2023-07-17T17:05:15.895Z,0.000000
2023-07-17T17:10:15.547Z,0.000000
2023-07-17T17:15:15.570Z,0.000000
2023-07-17T17:20:15.736Z,0.000000
2023-07-17T17:25:15.630Z,0.000000
2023-07-17T17:30:15.598Z,0.000000
2023-07-17T17:35:15.544Z,0.000000
2023-07-17T17:40:15.650Z,0.000000
2023-07-17T17:45:15.646Z,0.000000
2023-07-17T17:50:15.592Z,0.000000
2023-07-17T17:55:15.680Z,0.000000
2023-07-17T18:00:15.728Z,0.000000
2023-07-17T18:05:15.930Z,0.000000
2023-07-17T18:10:15.747Z,0.000000
2023-07-17T18:15:15.857Z,0.000000
2023-07-17T18:20:15.790Z,0.000000
2023-07-17T18:25:15.715Z,0.000000
2023-07-17T18:30:15.702Z,0.000000
2023-07-17T18:35:15.828Z,0.000000
2023-07-17T18:40:15.844Z,0.000000
2023-07-17T18:45:15.837Z,0.000000
2023-07-17T18:50:15.851Z,0.000000
2023-07-17T18:55:15.800Z,0.000000
2023-07-17T19:00:16.081Z,0.000000
2023-07-17T19:05:15.995Z,0.000000
2023-07-17T19:10:16.071Z,0.000000
2023-07-17T19:15:15.927Z,0.000000
2023-07-17T19:20:16.034Z,0.000000
2023-07-17T19:25:15.886Z,0.000000
2023-07-17T19:30:15.906Z,0.000000
2023-07-17T19:35:16.101Z,0.000000
2023-07-17T19:40:15.978Z,0.000000
2023-07-17T19:45:15.961Z,0.000000
2023-07-17T19:50:16.019Z,0.000000
2023-07-17T19:55:15.975Z,0.000000
2023-07-17T20:00:16.027Z,0.000000
2023-07-17T20:05:15.965Z,0.000000
2023-07-17T20:10:16.050Z,0.000000
2023-07-17T20:15:16.151Z,0.000000
2023-07-17T20:20:16.045Z,0.000000
2023-07-17T20:25:16.106Z,0.000000
2023-07-17T20:30:16.115Z,0.000000
2023-07-17T20:35:27.620Z,0.000000
2023-07-17T20:40:16.091Z,0.000000
2023-07-17T20:45:16.182Z,0.000000
2023-07-17T20:50:16.083Z,0.000000
2023-07-17T20:55:16.163Z,0.000000
2023-07-17T21:00:16.122Z,0.000000
2023-07-17T21:05:16.141Z,0.000000
2023-07-17T21:10:16.196Z,0.000000
2023-07-17T21:15:16.202Z,0.000000
2023-07-17T21:20:16.288Z,0.000000
2023-07-17T21:25:16.225Z,0.000000
2023-07-17T21:30:16.185Z,0.000000
2023-07-17T21:35:16.471Z,0.000000
2023-07-17T21:40:16.243Z,0.000000
2023-07-17T21:45:16.428Z,0.000000
2023-07-17T21:50:16.329Z,0.000000
2023-07-17T21:55:16.255Z,0.000000
2023-07-17T22:00:16.372Z,0.000000
2023-07-17T22:05:16.311Z,0.000000
2023-07-17T22:10:16.496Z,0.000000
2023-07-17T22:15:16.395Z,0.000000
2023-07-17T22:20:16.399Z,0.000000
2023-07-17T22:25:16.369Z,0.000000
2023-07-17T22:30:16.596Z,0.000000
2023-07-17T22:35:16.544Z,0.000000
2023-07-17T22:40:16.368Z,0.000000
2023-07-17T22:45:16.499Z,0.000000
2023-07-17T22:50:16.368Z,0.000000
2023-07-17T22:55:16.524Z,0.000000
2023-07-17T23:00:16.458Z,0.000000
2023-07-17T23:05:16.496Z,0.000000
2023-07-17T23:10:16.755Z,0.000000
2023-07-17T23:15:16.526Z,0.000000
2023-07-17T23:20:18.686Z,0.000000
2023-07-17T23:25:16.571Z,0.000000
2023-07-17T23:30:16.725Z,0.000000
2023-07-17T23:35:16.522Z,0.000000
2023-07-17T23:40:16.554Z,0.000000
2023-07-17T23:45:16.589Z,0.000000
2023-07-17T23:50:16.657Z,0.000000
2023-07-17T23:55:16.560Z,0.000000
